This is the latest recevied weather packets stored in our database for station/object WG5EEK. If no packets are shown the sender has not sent any weather packets the latest 10 day(s).
| Time | Temp. | Humidity | Pressure | Rain* | Wind** | Luminosity | Snow |
|---|---|---|---|---|---|---|---|
| 1778007242 | 20.56° C | 83% | 969.6 hPa | - | - | - | - |
| 1778006882 | 21.11° C | 84% | 969.3 hPa | - | - | - | - |
| 1778006545 | 21.11° C | 85% | 969 hPa | - | - | - | - |
| 1778005802 | 22.22° C | 89% | 966.9 hPa | - | - | - | - |
| 1778003282 | 22.78° C | 89% | 965.3 hPa | - | - | - | - |
| 1778001841 | 22.78° C | 89% | 965.1 hPa | - | - | - | - |
| 1778001480 | 22.78° C | 89% | 965.3 hPa | - | - | - | - |
| 1778001122 | 22.78° C | 89% | 965.5 hPa | - | - | - | - |
| 1777999681 | 22.78° C | 89% | 965.3 hPa | - | - | - | - |
| 1777997521 | 22.78° C | 88% | 965.1 hPa | - | - | - | - |
| 1777996803 | 22.78° C | 88% | 965.1 hPa | - | - | - | - |
| 1777994282 | 22.22° C | 89% | 965.5 hPa | - | - | - | - |
| 1777992506 | 22.22° C | 89% | 966.5 hPa | - | - | - | - |
| 1777991762 | 21.67° C | 89% | 967 hPa | - | - | - | - |
| 1777991401 | 21.67° C | 89% | 967 hPa | - | - | - | - |
| 1777989963 | 21.11° C | 90% | 968.3 hPa | - | - | - | - |
| 1777988881 | 21.11° C | 90% | 968.7 hPa | - | - | - | - |
| 1777986361 | 20.56° C | 90% | 969.1 hPa | - | - | - | - |
| 1777984921 | 20° C | 90% | 969.4 hPa | - | - | - | - |
| 1777983483 | 20° C | 90% | 969.5 hPa | - | - | - | - |
| 1777979907 | 20° C | 89% | 969.1 hPa | - | - | - | - |
| 1777978802 | 20.56° C | 89% | 968.9 hPa | - | - | - | - |
| 1777976669 | 20.56° C | 88% | 969.1 hPa | - | - | - | - |
| 1777975587 | 20.56° C | 88% | 969 hPa | - | - | - | - |
| 1777973068 | 20.56° C | 88% | 969 hPa | - | - | - | - |
* Rain since midnight (hover to see other rain measurements)
** Current wind speed in m/s (hover to see current wind gust speed)